createdAt,value
2018-04-30T00:01:17.001Z,24.01
2018-04-30T00:03:43.006Z,24.02
2018-04-30T00:06:09.017Z,24.01
2018-04-30T00:08:35.024Z,24.01
2018-04-30T00:11:01.031Z,24.01
2018-04-30T00:13:27.064Z,24.01
2018-04-30T00:15:53.070Z,24.00
2018-04-30T00:18:19.050Z,24.01
2018-04-30T00:20:45.060Z,24.00
2018-04-30T00:23:11.071Z,24.00
2018-04-30T00:25:37.118Z,23.99
2018-04-30T00:28:03.091Z,23.99
2018-04-30T00:30:29.093Z,23.99
2018-04-30T00:32:55.132Z,23.99
2018-04-30T00:35:21.170Z,23.98
2018-04-30T00:37:47.138Z,23.99
2018-04-30T00:40:13.148Z,23.99
2018-04-30T00:42:39.153Z,23.99
2018-04-30T00:45:05.192Z,23.98
2018-04-30T00:47:31.170Z,23.98
2018-04-30T00:49:57.167Z,23.98
2018-04-30T00:52:23.183Z,23.98
2018-04-30T00:54:49.215Z,23.97
2018-04-30T00:57:15.206Z,23.97
2018-04-30T00:59:41.208Z,23.97
2018-04-30T01:02:07.222Z,23.97
2018-04-30T01:04:33.223Z,23.96
2018-04-30T01:06:59.239Z,23.97
2018-04-30T01:09:25.251Z,23.97
2018-04-30T01:11:51.264Z,23.96
2018-04-30T01:14:17.273Z,23.96
2018-04-30T01:16:43.283Z,23.96
2018-04-30T01:19:09.290Z,23.96
2018-04-30T01:21:35.289Z,23.96
2018-04-30T01:24:01.299Z,23.95
2018-04-30T01:26:27.313Z,23.96
2018-04-30T01:28:53.318Z,23.95
2018-04-30T01:31:19.327Z,23.95
2018-04-30T01:33:45.337Z,23.95
2018-04-30T01:36:11.334Z,23.94
2018-04-30T01:38:37.367Z,23.95
2018-04-30T01:41:03.373Z,23.95
2018-04-30T01:43:29.374Z,23.95
2018-04-30T01:45:55.409Z,23.94
2018-04-30T01:48:21.416Z,23.94
2018-04-30T01:50:47.455Z,23.95
2018-04-30T01:53:13.462Z,23.94
2018-04-30T01:55:39.470Z,23.94
2018-04-30T01:58:05.470Z,23.94
2018-04-30T02:00:31.505Z,23.93
2018-04-30T02:02:57.508Z,23.93
2018-04-30T02:05:23.521Z,23.93
2018-04-30T02:07:49.573Z,23.93
2018-04-30T02:10:15.582Z,23.93
2018-04-30T02:12:41.620Z,23.93
2018-04-30T02:15:07.590Z,23.92
2018-04-30T02:17:33.615Z,23.92
2018-04-30T02:19:59.626Z,23.93
2018-04-30T02:22:25.682Z,23.92
2018-04-30T02:24:51.686Z,23.92
2018-04-30T02:27:17.686Z,23.91
2018-04-30T02:29:43.700Z,23.92
2018-04-30T02:32:09.760Z,23.92
2018-04-30T02:34:35.737Z,23.91
2018-04-30T02:37:01.742Z,23.91
2018-04-30T02:39:27.775Z,23.91
2018-04-30T02:41:53.794Z,23.91
2018-04-30T02:44:19.865Z,23.91
2018-04-30T02:46:45.862Z,23.91
2018-04-30T02:49:11.872Z,23.90
2018-04-30T02:51:37.891Z,23.91
2018-04-30T02:54:03.942Z,23.90
2018-04-30T02:56:29.954Z,23.90
2018-04-30T02:58:55.963Z,23.90
2018-04-30T03:01:21.972Z,23.90
2018-04-30T03:03:48.012Z,23.90
2018-04-30T03:06:14.005Z,23.90
2018-04-30T03:08:40.014Z,23.89
2018-04-30T03:11:06.013Z,23.89
2018-04-30T03:13:32.022Z,23.90
2018-04-30T03:15:58.032Z,23.90
2018-04-30T03:18:24.054Z,23.88
2018-04-30T03:20:50.049Z,23.88
2018-04-30T03:23:16.064Z,23.88
2018-04-30T03:25:42.062Z,23.88
2018-04-30T03:28:08.072Z,23.88
2018-04-30T03:30:34.086Z,23.88
2018-04-30T03:33:00.091Z,23.88
2018-04-30T03:35:26.129Z,23.87
2018-04-30T03:37:52.094Z,23.88
2018-04-30T03:40:18.189Z,23.87
2018-04-30T03:42:44.199Z,23.87
2018-04-30T03:45:10.207Z,23.87
2018-04-30T03:47:36.213Z,23.87
2018-04-30T03:50:02.224Z,23.87
2018-04-30T03:52:28.225Z,23.87
2018-04-30T03:54:54.261Z,23.86
2018-04-30T03:57:20.265Z,23.86
2018-04-30T03:59:46.271Z,23.86
2018-04-30T04:02:12.302Z,23.86
2018-04-30T04:04:38.354Z,23.86
2018-04-30T04:07:04.358Z,23.87
2018-04-30T04:09:30.357Z,23.86
2018-04-30T04:11:56.365Z,23.88
2018-04-30T04:14:22.409Z,23.87
2018-04-30T04:16:48.421Z,23.86
2018-04-30T04:19:14.458Z,23.87
2018-04-30T04:21:40.504Z,23.87
2018-04-30T04:24:06.512Z,23.86
2018-04-30T04:26:32.552Z,23.87
2018-04-30T04:28:58.553Z,23.86
2018-04-30T04:31:24.594Z,23.86
2018-04-30T04:33:50.787Z,23.86
2018-04-30T04:36:16.769Z,23.87
2018-04-30T04:38:42.776Z,23.88
2018-04-30T04:41:08.782Z,23.89
2018-04-30T04:43:34.781Z,23.89
2018-04-30T04:46:00.834Z,23.89
2018-04-30T04:48:26.895Z,23.90
2018-04-30T04:50:52.906Z,23.94
2018-04-30T04:53:18.914Z,23.94
2018-04-30T04:55:44.962Z,23.94
2018-04-30T04:58:10.976Z,23.94
2018-04-30T05:00:37.013Z,23.93
2018-04-30T05:03:02.977Z,23.93
2018-04-30T05:05:28.983Z,23.95
2018-04-30T05:07:55.011Z,23.93
2018-04-30T05:10:21.023Z,23.93
2018-04-30T05:12:47.094Z,23.93
2018-04-30T05:15:13.098Z,23.92
2018-04-30T05:17:39.126Z,23.92
2018-04-30T05:20:05.140Z,23.90
2018-04-30T05:22:31.116Z,23.91
2018-04-30T05:24:57.150Z,23.91
2018-04-30T05:27:23.135Z,23.91
2018-04-30T05:29:49.170Z,23.91
2018-04-30T05:32:15.155Z,23.91
2018-04-30T05:34:41.160Z,23.92
2018-04-30T05:37:07.184Z,23.91
2018-04-30T05:39:33.200Z,23.92
2018-04-30T05:41:59.212Z,23.92
2018-04-30T05:44:25.216Z,23.92
2018-04-30T05:46:51.254Z,23.92
2018-04-30T05:49:17.253Z,23.92
2018-04-30T05:51:43.284Z,23.92
2018-04-30T05:54:09.340Z,23.92
2018-04-30T05:56:35.344Z,23.93
2018-04-30T05:59:01.354Z,23.92
2018-04-30T06:01:27.376Z,23.93
2018-04-30T06:03:53.384Z,23.93
2018-04-30T06:06:19.385Z,23.92
2018-04-30T06:08:45.398Z,23.91
2018-04-30T06:11:11.439Z,23.90
2018-04-30T06:13:37.428Z,23.89
2018-04-30T06:16:03.471Z,23.88
2018-04-30T06:18:29.478Z,23.87
2018-04-30T06:20:55.457Z,23.87
2018-04-30T06:23:21.465Z,23.87
2018-04-30T06:25:47.471Z,23.87
2018-04-30T06:28:13.510Z,23.87
2018-04-30T06:30:39.520Z,23.86
2018-04-30T06:33:05.532Z,23.86
2018-04-30T06:35:31.538Z,23.86
2018-04-30T06:37:57.551Z,23.86
2018-04-30T06:40:23.594Z,23.87
2018-04-30T06:42:49.594Z,23.92
2018-04-30T06:45:15.596Z,23.94
2018-04-30T06:47:41.608Z,23.96
2018-04-30T06:50:07.610Z,23.96
2018-04-30T06:52:33.646Z,23.97
2018-04-30T06:54:59.653Z,23.98
2018-04-30T06:57:25.663Z,23.98
2018-04-30T06:59:51.671Z,23.99
2018-04-30T07:02:17.685Z,23.98
2018-04-30T07:04:43.716Z,23.99
2018-04-30T07:07:09.740Z,23.98
2018-04-30T07:09:35.971Z,23.98
2018-04-30T07:12:01.802Z,23.98
2018-04-30T07:14:27.807Z,23.98
2018-04-30T07:16:53.817Z,23.97
2018-04-30T07:19:19.841Z,23.97
2018-04-30T07:21:45.857Z,23.97
2018-04-30T07:24:11.893Z,23.98
2018-04-30T07:26:37.874Z,23.98
2018-04-30T07:29:03.886Z,23.97
2018-04-30T07:31:29.894Z,23.98
2018-04-30T07:33:55.909Z,23.99
2018-04-30T07:36:21.954Z,23.98
2018-04-30T07:38:47.934Z,23.99
2018-04-30T07:41:13.945Z,24.00
2018-04-30T07:43:39.954Z,24.00
2018-04-30T07:46:05.952Z,24.01
2018-04-30T07:48:31.957Z,24.00
2018-04-30T07:50:57.996Z,24.01
2018-04-30T07:53:23.973Z,24.01
2018-04-30T07:55:49.995Z,24.01
2018-04-30T07:58:16.025Z,24.02
2018-04-30T08:00:42.039Z,24.01
2018-04-30T08:03:08.220Z,24.01
2018-04-30T08:05:34.202Z,24.01
2018-04-30T08:08:00.214Z,24.01
2018-04-30T08:10:26.272Z,24.00
2018-04-30T08:12:52.323Z,23.99
2018-04-30T08:15:18.360Z,23.99
2018-04-30T08:17:44.333Z,23.99
2018-04-30T08:20:10.441Z,23.99
2018-04-30T08:22:36.480Z,23.99
2018-04-30T08:25:02.455Z,23.99
2018-04-30T08:27:28.454Z,23.99
2018-04-30T08:29:54.500Z,23.98
2018-04-30T08:32:20.560Z,23.99
2018-04-30T08:34:46.590Z,23.98
2018-04-30T08:37:12.641Z,23.98
2018-04-30T08:39:38.692Z,23.99
2018-04-30T08:42:04.732Z,23.98
2018-04-30T08:44:30.742Z,23.98
2018-04-30T08:46:56.752Z,23.99
2018-04-30T08:49:22.809Z,23.98
2018-04-30T08:51:48.791Z,23.98
2018-04-30T08:54:14.828Z,23.97
2018-04-30T08:56:40.850Z,23.98
2018-04-30T08:59:06.894Z,23.98
2018-04-30T09:01:32.939Z,23.98
2018-04-30T09:03:58.919Z,23.98
2018-04-30T09:06:24.921Z,23.98
2018-04-30T09:08:50.936Z,23.98
2018-04-30T09:11:16.943Z,23.99
2018-04-30T09:13:42.950Z,23.98
2018-04-30T09:16:08.965Z,23.98
2018-04-30T09:18:35.004Z,23.97
2018-04-30T09:21:01.031Z,23.97
2018-04-30T09:23:27.010Z,23.98
2018-04-30T09:25:53.020Z,23.98
2018-04-30T09:28:19.024Z,23.97
2018-04-30T09:30:45.044Z,23.97
2018-04-30T09:33:11.078Z,23.97
2018-04-30T09:35:37.050Z,23.97
2018-04-30T09:38:03.053Z,23.97
2018-04-30T09:40:29.094Z,23.98
2018-04-30T09:42:55.076Z,23.98
2018-04-30T09:45:21.123Z,23.98
2018-04-30T09:47:47.164Z,23.99
2018-04-30T09:50:13.139Z,23.99
2018-04-30T09:52:39.148Z,23.99
2018-04-30T09:55:05.153Z,23.98
2018-04-30T09:57:31.160Z,23.98
2018-04-30T09:59:57.186Z,23.99
2018-04-30T10:02:23.201Z,23.99
2018-04-30T10:04:49.258Z,23.99
2018-04-30T10:07:15.270Z,23.98
2018-04-30T10:09:41.240Z,23.98
2018-04-30T10:12:07.254Z,23.98
2018-04-30T10:14:33.256Z,23.98
2018-04-30T10:16:59.278Z,23.99
2018-04-30T10:19:25.280Z,23.99
2018-04-30T10:21:51.292Z,23.99
2018-04-30T10:24:17.318Z,23.99
2018-04-30T10:26:43.317Z,23.99
2018-04-30T10:29:09.398Z,23.99
2018-04-30T10:31:35.479Z,24.00
2018-04-30T10:34:01.393Z,23.99
2018-04-30T10:36:27.399Z,23.99
2018-04-30T10:38:53.440Z,23.99
2018-04-30T10:41:19.445Z,23.99
2018-04-30T10:43:45.450Z,23.98
2018-04-30T10:46:11.455Z,23.98
2018-04-30T10:48:37.461Z,23.99
2018-04-30T10:51:03.487Z,23.98
2018-04-30T10:53:29.494Z,23.99
2018-04-30T10:55:55.510Z,23.99
2018-04-30T10:58:21.515Z,24.00
2018-04-30T11:00:47.530Z,23.99
2018-04-30T11:03:13.536Z,23.99
2018-04-30T11:05:39.589Z,23.99
2018-04-30T11:08:05.592Z,23.98
2018-04-30T11:10:31.666Z,23.97
2018-04-30T11:12:57.676Z,23.98
2018-04-30T11:15:23.692Z,23.96
2018-04-30T11:17:49.730Z,23.96
2018-04-30T11:20:15.701Z,23.96
2018-04-30T11:22:41.893Z,23.97
2018-04-30T11:25:07.857Z,23.97
2018-04-30T11:27:33.985Z,23.96
2018-04-30T11:32:54.314Z,23.96
2018-04-30T11:35:20.319Z,23.96
2018-04-30T11:37:46.324Z,23.95
2018-04-30T11:40:12.301Z,23.96
2018-04-30T11:42:38.308Z,23.95
2018-04-30T11:45:04.354Z,23.96
2018-04-30T11:47:30.325Z,23.96
2018-04-30T11:49:56.306Z,23.95
2018-04-30T11:52:22.304Z,23.97
2018-04-30T11:54:48.325Z,23.98
2018-04-30T11:57:14.309Z,23.97
2018-04-30T11:59:40.256Z,23.98
2018-04-30T12:02:06.366Z,23.97
2018-04-30T12:04:32.347Z,23.97
2018-04-30T12:06:58.330Z,23.97
2018-04-30T12:09:24.326Z,23.97
2018-04-30T12:11:50.465Z,23.97
2018-04-30T12:14:16.458Z,23.96
2018-04-30T12:16:42.469Z,23.97
2018-04-30T12:19:08.461Z,23.97
2018-04-30T12:21:34.407Z,23.96
2018-04-30T12:24:00.388Z,23.96
2018-04-30T12:26:26.418Z,23.97
2018-04-30T12:28:52.446Z,23.97
2018-04-30T12:31:18.426Z,23.96
2018-04-30T12:33:44.410Z,23.95
2018-04-30T12:36:10.446Z,23.95
2018-04-30T12:38:36.370Z,23.95
2018-04-30T12:41:02.338Z,23.95
2018-04-30T12:43:28.350Z,23.95
2018-04-30T12:45:54.323Z,23.95
2018-04-30T12:48:20.311Z,23.94
2018-04-30T12:50:46.355Z,23.93
2018-04-30T12:53:12.270Z,23.94
2018-04-30T12:55:38.327Z,23.94
2018-04-30T12:58:04.343Z,23.94
2018-04-30T13:00:30.329Z,23.95
2018-04-30T13:02:56.273Z,23.93
2018-04-30T13:05:22.268Z,23.93
2018-04-30T13:07:48.285Z,23.94
2018-04-30T13:10:14.264Z,23.94
2018-04-30T13:12:40.248Z,23.95
2018-04-30T13:15:06.252Z,23.93
2018-04-30T13:17:32.260Z,23.93
2018-04-30T13:19:58.283Z,23.92
2018-04-30T13:22:24.242Z,23.92
2018-04-30T13:24:50.219Z,23.92
2018-04-30T13:27:16.192Z,23.91
2018-04-30T13:29:42.183Z,23.91
2018-04-30T13:32:08.157Z,23.91
2018-04-30T13:34:34.175Z,23.92
2018-04-30T13:37:00.186Z,23.90
2018-04-30T13:39:26.142Z,23.90
2018-04-30T13:41:52.161Z,23.90
2018-04-30T13:44:18.118Z,23.91
2018-04-30T13:46:44.108Z,23.93
2018-04-30T13:49:10.085Z,23.93
2018-04-30T13:51:36.092Z,23.94
2018-04-30T13:54:02.105Z,23.93
2018-04-30T13:56:28.084Z,23.93
2018-04-30T13:58:54.118Z,23.93
2018-04-30T14:01:20.115Z,23.93
2018-04-30T14:03:46.049Z,23.93
2018-04-30T14:06:12.026Z,23.94
2018-04-30T14:08:38.034Z,23.93
2018-04-30T14:11:03.991Z,23.94
2018-04-30T14:13:29.961Z,23.93
2018-04-30T14:15:56.010Z,23.93
2018-04-30T14:18:21.916Z,23.92
2018-04-30T14:20:47.906Z,23.92
2018-04-30T14:23:13.911Z,23.93
2018-04-30T14:25:39.893Z,23.92
2018-04-30T14:28:05.873Z,23.92
2018-04-30T14:30:31.855Z,23.92
2018-04-30T14:32:57.834Z,23.93
2018-04-30T14:35:23.932Z,23.92
2018-04-30T14:37:49.884Z,23.93
2018-04-30T14:40:15.898Z,23.93
2018-04-30T14:42:41.844Z,23.92
2018-04-30T14:45:07.838Z,23.92
2018-04-30T14:47:33.850Z,23.93
2018-04-30T14:49:59.796Z,23.93
2018-04-30T14:52:25.806Z,23.93
2018-04-30T14:54:51.760Z,23.92
2018-04-30T14:57:17.772Z,23.92
2018-04-30T14:59:43.777Z,23.93
2018-04-30T15:02:09.788Z,23.95
2018-04-30T15:04:35.753Z,23.95
2018-04-30T15:07:01.769Z,23.96
2018-04-30T15:09:27.729Z,23.95
2018-04-30T15:11:53.706Z,23.94
2018-04-30T15:14:19.686Z,23.94
2018-04-30T15:16:45.664Z,23.94
2018-04-30T15:19:11.661Z,23.94
2018-04-30T15:21:37.642Z,23.95
2018-04-30T15:24:03.649Z,23.95
2018-04-30T15:26:29.638Z,23.97
2018-04-30T15:28:55.601Z,23.97
2018-04-30T15:31:21.592Z,23.99
2018-04-30T15:33:47.569Z,24.00
2018-04-30T15:36:13.622Z,23.99
2018-04-30T15:38:39.567Z,24.01
2018-04-30T15:41:05.556Z,24.00
2018-04-30T15:43:31.598Z,24.00
2018-04-30T15:45:57.571Z,24.01
2018-04-30T15:48:23.523Z,24.00
2018-04-30T15:50:49.570Z,24.00
2018-04-30T15:53:15.550Z,24.00
2018-04-30T15:55:41.532Z,23.99
2018-04-30T15:58:07.508Z,23.99
2018-04-30T16:00:33.482Z,24.00
2018-04-30T16:02:59.466Z,24.00
2018-04-30T16:05:25.466Z,24.01
2018-04-30T16:07:51.486Z,24.01
2018-04-30T16:10:17.493Z,24.02
2018-04-30T16:12:43.486Z,24.02
2018-04-30T16:15:09.609Z,24.02
2018-04-30T16:17:35.585Z,24.07
2018-04-30T16:20:01.606Z,24.06
2018-04-30T16:22:27.540Z,24.03
2018-04-30T16:24:53.708Z,24.02
2018-04-30T16:27:19.786Z,24.04
2018-04-30T16:29:45.884Z,24.04
2018-04-30T16:32:11.917Z,24.03
2018-04-30T16:34:37.925Z,24.03
2018-04-30T16:37:03.937Z,24.03
2018-04-30T16:39:29.942Z,24.03
2018-04-30T16:41:55.922Z,24.08
2018-04-30T16:44:21.914Z,24.07
2018-04-30T16:46:47.857Z,24.07
2018-04-30T16:49:13.856Z,24.06
2018-04-30T16:51:39.840Z,24.11
2018-04-30T16:54:05.871Z,24.11
2018-04-30T16:56:31.865Z,24.11
2018-04-30T16:58:57.925Z,24.12
2018-04-30T17:01:23.920Z,24.10
2018-04-30T17:03:49.958Z,24.12
2018-04-30T17:06:15.934Z,24.13
2018-04-30T17:08:41.909Z,24.13
2018-04-30T17:11:07.865Z,24.13
2018-04-30T17:13:33.863Z,24.13
2018-04-30T17:15:59.949Z,24.14
2018-04-30T17:18:26.172Z,24.15
2018-04-30T17:20:52.193Z,24.16
2018-04-30T17:23:18.202Z,24.17
2018-04-30T17:25:44.211Z,24.16
2018-04-30T17:28:10.197Z,24.15
2018-04-30T17:30:36.215Z,24.13
2018-04-30T17:33:02.165Z,24.12
2018-04-30T17:35:28.143Z,24.10
2018-04-30T17:37:54.129Z,24.09
2018-04-30T17:40:20.141Z,24.05
2018-04-30T17:42:46.152Z,24.03
2018-04-30T17:45:12.101Z,24.04
2018-04-30T17:47:38.075Z,24.05
2018-04-30T17:50:04.184Z,24.03
2018-04-30T17:52:30.162Z,24.04
2018-04-30T17:54:56.141Z,24.04
2018-04-30T17:57:22.129Z,24.09
2018-04-30T17:59:48.100Z,24.09
2018-04-30T18:02:14.111Z,24.08
2018-04-30T18:04:40.132Z,24.08
2018-04-30T18:07:06.139Z,24.09
2018-04-30T18:09:32.073Z,24.09
2018-04-30T18:11:58.083Z,24.10
2018-04-30T18:14:24.037Z,24.10
2018-04-30T18:16:50.030Z,24.12
2018-04-30T18:19:16.087Z,24.13
2018-04-30T18:21:42.106Z,24.13
2018-04-30T18:24:08.108Z,24.12
2018-04-30T18:26:34.169Z,24.09
2018-04-30T18:29:00.069Z,24.09
2018-04-30T18:31:26.058Z,24.08
2018-04-30T18:33:52.078Z,24.07
2018-04-30T18:36:18.032Z,24.07
2018-04-30T18:38:44.093Z,24.10
2018-04-30T18:41:10.009Z,24.11
2018-04-30T18:43:35.994Z,24.12
2018-04-30T18:46:01.977Z,24.13
2018-04-30T18:48:28.035Z,24.14
2018-04-30T18:50:54.057Z,24.14
2018-04-30T18:53:20.004Z,24.12
2018-04-30T18:55:45.978Z,24.13
2018-04-30T18:58:11.961Z,24.14
2018-04-30T19:00:37.971Z,24.14
2018-04-30T19:03:03.944Z,24.14
2018-04-30T19:05:29.926Z,24.15
2018-04-30T19:07:55.957Z,24.14
2018-04-30T19:10:21.884Z,24.14
2018-04-30T19:12:47.904Z,24.14
2018-04-30T19:15:13.887Z,24.14
2018-04-30T19:17:39.864Z,24.14
2018-04-30T19:20:05.887Z,24.15
2018-04-30T19:22:31.869Z,24.15
2018-04-30T19:24:57.819Z,24.15
2018-04-30T19:27:23.829Z,24.16
2018-04-30T19:29:49.798Z,24.16
2018-04-30T19:32:15.817Z,24.16
2018-04-30T19:34:41.814Z,24.16
2018-04-30T19:37:07.874Z,24.16
2018-04-30T19:39:34.316Z,24.16
2018-04-30T19:42:00.348Z,24.17
2018-04-30T19:44:26.290Z,24.16
2018-04-30T19:46:52.268Z,24.17
2018-04-30T19:49:18.251Z,24.16
2018-04-30T19:51:44.226Z,24.16
2018-04-30T19:54:10.207Z,24.16
2018-04-30T19:56:36.261Z,24.15
2018-04-30T19:59:02.213Z,24.15
2018-04-30T20:01:28.193Z,24.16
2018-04-30T20:03:54.181Z,24.15
2018-04-30T20:06:20.164Z,24.16
2018-04-30T20:08:46.182Z,24.15
2018-04-30T20:11:12.126Z,24.16
2018-04-30T20:13:38.156Z,24.16
2018-04-30T20:16:04.135Z,24.16
2018-04-30T20:18:30.120Z,24.18
2018-04-30T20:20:56.129Z,24.17
2018-04-30T20:23:22.131Z,24.17
2018-04-30T20:25:48.155Z,24.16
2018-04-30T20:28:14.130Z,24.17
2018-04-30T20:30:40.112Z,24.17
2018-04-30T20:33:06.093Z,24.18
2018-04-30T20:35:32.079Z,24.17
2018-04-30T20:37:58.135Z,24.16
2018-04-30T20:40:24.036Z,24.16
2018-04-30T20:42:50.058Z,24.16
2018-04-30T20:45:16.033Z,24.15
2018-04-30T20:47:42.018Z,24.14
2018-04-30T20:50:08.056Z,24.14
2018-04-30T20:52:34.062Z,24.14
2018-04-30T20:55:00.005Z,24.14
2018-04-30T20:57:25.982Z,24.12
2018-04-30T20:59:51.990Z,24.11
2018-04-30T21:02:17.930Z,24.11
2018-04-30T21:04:43.907Z,24.10
2018-04-30T21:07:09.957Z,24.10
2018-04-30T21:09:35.901Z,24.09
2018-04-30T21:12:01.902Z,24.08
2018-04-30T21:14:27.888Z,24.08
2018-04-30T21:16:53.871Z,24.07
2018-04-30T21:19:19.878Z,24.06
2018-04-30T21:21:45.854Z,24.05
2018-04-30T21:24:11.815Z,24.04
2018-04-30T21:26:37.832Z,24.04
2018-04-30T21:29:03.816Z,24.02
2018-04-30T21:31:29.815Z,24.03
2018-04-30T21:33:55.839Z,24.02
2018-04-30T21:36:21.853Z,24.02
2018-04-30T21:38:47.843Z,24.01
2018-04-30T21:41:13.810Z,24.01
2018-04-30T21:43:39.886Z,24.01
2018-04-30T21:46:05.902Z,24.00
2018-04-30T21:48:31.848Z,24.00
2018-04-30T21:50:58.001Z,24.00
2018-04-30T21:53:23.978Z,23.99
2018-04-30T21:55:50.098Z,23.99
2018-04-30T21:58:16.255Z,23.99
2018-04-30T22:00:42.234Z,24.00
2018-04-30T22:03:08.271Z,23.99
2018-04-30T22:05:34.254Z,23.98
2018-04-30T22:08:00.250Z,23.98
2018-04-30T22:10:26.232Z,23.98
2018-04-30T22:12:52.210Z,23.98
2018-04-30T22:15:18.187Z,23.97
2018-04-30T22:17:44.452Z,23.97
2018-04-30T22:20:10.408Z,23.97
2018-04-30T22:22:36.411Z,23.96
2018-04-30T22:25:02.437Z,23.96
2018-04-30T22:27:28.413Z,23.96
2018-04-30T22:29:54.367Z,23.96
2018-04-30T22:32:20.390Z,23.96
2018-04-30T22:34:46.378Z,23.96
2018-04-30T22:37:12.377Z,23.95
2018-04-30T22:39:38.358Z,23.95
2018-04-30T22:42:04.336Z,23.95
2018-04-30T22:44:30.318Z,23.95
2018-04-30T22:46:56.293Z,23.94
2018-04-30T22:49:22.316Z,23.94
2018-04-30T22:51:48.296Z,23.93
2018-04-30T22:54:14.253Z,23.93
2018-04-30T22:56:40.235Z,23.93
2018-04-30T22:59:06.249Z,23.93
2018-04-30T23:01:32.220Z,23.93
2018-04-30T23:03:58.205Z,23.93
2018-04-30T23:06:24.193Z,23.92
2018-04-30T23:08:50.130Z,23.92
2018-04-30T23:11:16.147Z,23.92
2018-04-30T23:13:42.086Z,23.92
2018-04-30T23:16:08.068Z,23.92
2018-04-30T23:18:34.047Z,23.91
2018-04-30T23:21:00.085Z,23.91
2018-04-30T23:23:26.100Z,23.91
2018-04-30T23:25:52.051Z,23.90
2018-04-30T23:28:18.054Z,23.91
2018-04-30T23:30:44.004Z,23.90
2018-04-30T23:33:10.011Z,23.91
2018-04-30T23:35:35.984Z,23.90
2018-04-30T23:38:01.991Z,23.90
2018-04-30T23:40:27.958Z,23.90
2018-04-30T23:42:53.970Z,23.89
2018-04-30T23:45:19.949Z,23.89
2018-04-30T23:47:46.127Z,23.90
2018-04-30T23:50:12.101Z,23.89
2018-04-30T23:52:38.110Z,23.89
2018-04-30T23:55:04.061Z,23.89
2018-04-30T23:57:30.197Z,23.89
2018-04-30T23:59:56.183Z,23.89
